Elmrock, Kentucky
Current Conditions -  °F | °C
As of 1:15 AM on Wednesday 26 Nov 2014 (Local Time) from KPBX Reporting Station
Clear Clear  
Wind Chill: 35°   Ceiling: Unl
Heat Index: 40°   Visibility: 10mi
Dew Point: 28°   Wind: 8mph
Humidity: 63%   Direction: 10°N
Pressure: 30.05"   Gusts: NA
Location:  37.5041°N, 82.8415°W
Report Text: KPBX 260615Z AUTO 01007KT 10SM CLR 05/M02 A3005 RMK AO2 T00461020
Loading
Personal Weather Stations






























Interactive Weather Map New forecast layout! Learn more

10-Day Weather Forecast

Advertisements
Track Severe Weather on mobile